Dante, South Dakota
Current Conditions -  °F | °C
As of 4:15 PM on Tuesday 25 Nov 2014 (Local Time) from KYKN Reporting Station
Clear Clear  
Wind Chill: 36°   Ceiling: Unl
Heat Index: 41°   Visibility: 10mi
Dew Point: 25°   Wind: 8mph
Humidity: 53%   Direction: 140°SE
Pressure: 29.86"   Gusts: NA
Location:  43.04°N, 98.18°W
Report Text: KYKN 252215Z AUTO 14007KT 10SM CLR 05/M04 A2986 RMK AO1
Loading
Personal Weather Stations






























Interactive Weather Map New forecast layout! Learn more

10-Day Weather Forecast

Advertisements
Track Severe Weather on mobile